sensor_id;sensor_type;location;lat;lon;timestamp;temperature;humidity
22795;DHT22;11564;50.920;11.612;2023-02-02T00:00:42;2.00;99.90
22795;DHT22;11564;50.920;11.612;2023-02-02T00:03:08;2.00;99.90
22795;DHT22;11564;50.920;11.612;2023-02-02T00:05:35;2.10;99.90
22795;DHT22;11564;50.920;11.612;2023-02-02T00:08:01;2.20;99.90
22795;DHT22;11564;50.920;11.612;2023-02-02T00:10:26;2.20;99.90
22795;DHT22;11564;50.920;11.612;2023-02-02T00:12:52;2.20;99.90
22795;DHT22;11564;50.920;11.612;2023-02-02T00:15:18;2.30;99.90
22795;DHT22;11564;50.920;11.612;2023-02-02T00:17:44;2.30;99.90
22795;DHT22;11564;50.920;11.612;2023-02-02T00:20:09;2.20;99.90
22795;DHT22;11564;50.920;11.612;2023-02-02T00:22:35;2.30;99.90
22795;DHT22;11564;50.920;11.612;2023-02-02T00:25:00;2.30;99.90
22795;DHT22;11564;50.920;11.612;2023-02-02T00:27:26;2.30;99.90
22795;DHT22;11564;50.920;11.612;2023-02-02T00:29:51;2.30;99.90
22795;DHT22;11564;50.920;11.612;2023-02-02T00:32:18;2.30;99.90
22795;DHT22;11564;50.920;11.612;2023-02-02T00:34:44;2.40;99.90
22795;DHT22;11564;50.920;11.612;2023-02-02T00:37:09;2.30;99.90
22795;DHT22;11564;50.920;11.612;2023-02-02T00:39:35;2.30;99.90
22795;DHT22;11564;50.920;11.612;2023-02-02T00:42:00;2.30;99.90
22795;DHT22;11564;50.920;11.612;2023-02-02T00:44:27;2.30;99.90
22795;DHT22;11564;50.920;11.612;2023-02-02T00:47:11;2.30;99.90
22795;DHT22;11564;50.920;11.612;2023-02-02T00:49:37;2.20;99.90
22795;DHT22;11564;50.920;11.612;2023-02-02T00:52:02;2.20;99.90
22795;DHT22;11564;50.920;11.612;2023-02-02T00:54:28;2.20;99.90
22795;DHT22;11564;50.920;11.612;2023-02-02T00:56:53;2.20;99.90
22795;DHT22;11564;50.920;11.612;2023-02-02T00:59:19;2.30;99.90
22795;DHT22;11564;50.920;11.612;2023-02-02T01:01:44;2.30;99.90
22795;DHT22;11564;50.920;11.612;2023-02-02T01:04:10;2.30;99.90
22795;DHT22;11564;50.920;11.612;2023-02-02T01:06:35;2.40;99.90
22795;DHT22;11564;50.920;11.612;2023-02-02T01:09:01;2.50;99.90
22795;DHT22;11564;50.920;11.612;2023-02-02T01:11:27;2.50;99.90
22795;DHT22;11564;50.920;11.612;2023-02-02T01:13:53;2.60;99.90
22795;DHT22;11564;50.920;11.612;2023-02-02T01:16:18;2.60;99.90
22795;DHT22;11564;50.920;11.612;2023-02-02T01:18:46;2.70;99.90
22795;DHT22;11564;50.920;11.612;2023-02-02T01:21:12;2.70;99.90
22795;DHT22;11564;50.920;11.612;2023-02-02T01:23:38;2.60;99.90
22795;DHT22;11564;50.920;11.612;2023-02-02T01:26:04;2.60;99.90
22795;DHT22;11564;50.920;11.612;2023-02-02T01:28:30;2.60;99.90
22795;DHT22;11564;50.920;11.612;2023-02-02T01:30:56;2.50;99.90
22795;DHT22;11564;50.920;11.612;2023-02-02T01:33:22;2.50;99.90
22795;DHT22;11564;50.920;11.612;2023-02-02T01:35:49;2.50;99.90
22795;DHT22;11564;50.920;11.612;2023-02-02T01:38:15;2.50;99.90
22795;DHT22;11564;50.920;11.612;2023-02-02T01:40:48;2.40;99.90
22795;DHT22;11564;50.920;11.612;2023-02-02T01:43:24;2.30;99.90
22795;DHT22;11564;50.920;11.612;2023-02-02T01:45:50;2.40;99.90
22795;DHT22;11564;50.920;11.612;2023-02-02T01:48:15;2.40;99.90
22795;DHT22;11564;50.920;11.612;2023-02-02T01:50:42;2.50;99.90
22795;DHT22;11564;50.920;11.612;2023-02-02T01:53:08;2.50;99.90
22795;DHT22;11564;50.920;11.612;2023-02-02T01:55:34;2.50;99.90
22795;DHT22;11564;50.920;11.612;2023-02-02T01:58:03;2.40;99.90
22795;DHT22;11564;50.920;11.612;2023-02-02T02:00:29;2.40;99.90
22795;DHT22;11564;50.920;11.612;2023-02-02T02:03:05;2.40;99.90
22795;DHT22;11564;50.920;11.612;2023-02-02T02:05:34;2.40;99.90
22795;DHT22;11564;50.920;11.612;2023-02-02T02:08:12;2.40;99.90
22795;DHT22;11564;50.920;11.612;2023-02-02T02:10:38;2.40;99.90
22795;DHT22;11564;50.920;11.612;2023-02-02T02:13:04;2.40;99.90
22795;DHT22;11564;50.920;11.612;2023-02-02T02:15:30;2.30;99.90
22795;DHT22;11564;50.920;11.612;2023-02-02T02:41:37;2.60;99.90
22795;DHT22;11564;50.920;11.612;2023-02-02T02:44:05;2.60;99.90
22795;DHT22;11564;50.920;11.612;2023-02-02T02:46:32;2.60;99.90
22795;DHT22;11564;50.920;11.612;2023-02-02T02:48:58;2.70;99.90
22795;DHT22;11564;50.920;11.612;2023-02-02T02:54:10;2.60;99.90
22795;DHT22;11564;50.920;11.612;2023-02-02T02:56:40;2.60;99.90
22795;DHT22;11564;50.920;11.612;2023-02-02T02:59:24;2.70;99.90
22795;DHT22;11564;50.920;11.612;2023-02-02T03:06:42;2.80;99.90
22795;DHT22;11564;50.920;11.612;2023-02-02T03:09:14;2.80;99.90
22795;DHT22;11564;50.920;11.612;2023-02-02T03:11:41;2.90;99.90
22795;DHT22;11564;50.920;11.612;2023-02-02T03:14:07;2.80;99.90
22795;DHT22;11564;50.920;11.612;2023-02-02T03:16:34;2.90;99.90
22795;DHT22;11564;50.920;11.612;2023-02-02T03:19:00;2.90;99.90
22795;DHT22;11564;50.920;11.612;2023-02-02T03:21:26;2.90;99.90
22795;DHT22;11564;50.920;11.612;2023-02-02T03:23:51;2.90;99.90
22795;DHT22;11564;50.920;11.612;2023-02-02T03:26:17;3.00;99.90
22795;DHT22;11564;50.920;11.612;2023-02-02T03:28:42;2.90;99.90
22795;DHT22;11564;50.920;11.612;2023-02-02T03:31:08;3.00;99.90
22795;DHT22;11564;50.920;11.612;2023-02-02T03:33:34;3.00;99.90
22795;DHT22;11564;50.920;11.612;2023-02-02T03:36:00;3.10;99.90
22795;DHT22;11564;50.920;11.612;2023-02-02T03:38:25;3.10;99.90
22795;DHT22;11564;50.920;11.612;2023-02-02T03:40:51;3.20;99.90
22795;DHT22;11564;50.920;11.612;2023-02-02T03:43:20;3.20;99.90
22795;DHT22;11564;50.920;11.612;2023-02-02T03:45:45;3.00;99.90
22795;DHT22;11564;50.920;11.612;2023-02-02T03:48:11;3.10;99.90
22795;DHT22;11564;50.920;11.612;2023-02-02T03:50:36;3.10;99.90
22795;DHT22;11564;50.920;11.612;2023-02-02T03:53:02;3.10;99.90
22795;DHT22;11564;50.920;11.612;2023-02-02T03:55:27;3.10;99.90
22795;DHT22;11564;50.920;11.612;2023-02-02T03:57:53;3.20;99.90
22795;DHT22;11564;50.920;11.612;2023-02-02T04:00:19;3.10;99.90
22795;DHT22;11564;50.920;11.612;2023-02-02T04:02:44;3.10;99.90
22795;DHT22;11564;50.920;11.612;2023-02-02T04:05:10;3.20;99.90
22795;DHT22;11564;50.920;11.612;2023-02-02T04:07:36;3.20;99.90
22795;DHT22;11564;50.920;11.612;2023-02-02T04:10:02;3.20;99.90
22795;DHT22;11564;50.920;11.612;2023-02-02T04:12:28;3.20;99.90
22795;DHT22;11564;50.920;11.612;2023-02-02T04:14:53;3.30;99.90
22795;DHT22;11564;50.920;11.612;2023-02-02T04:17:19;3.30;99.90
22795;DHT22;11564;50.920;11.612;2023-02-02T04:19:44;3.30;99.90
22795;DHT22;11564;50.920;11.612;2023-02-02T04:22:10;3.20;99.90
22795;DHT22;11564;50.920;11.612;2023-02-02T04:24:35;3.20;99.90
22795;DHT22;11564;50.920;11.612;2023-02-02T04:27:01;3.30;99.90
22795;DHT22;11564;50.920;11.612;2023-02-02T04:29:26;3.40;99.90
22795;DHT22;11564;50.920;11.612;2023-02-02T04:31:52;3.40;99.90
22795;DHT22;11564;50.920;11.612;2023-02-02T04:34:18;3.40;99.90
22795;DHT22;11564;50.920;11.612;2023-02-02T04:36:43;3.40;99.90
22795;DHT22;11564;50.920;11.612;2023-02-02T04:39:10;3.40;99.90
22795;DHT22;11564;50.920;11.612;2023-02-02T04:41:35;3.30;99.90
22795;DHT22;11564;50.920;11.612;2023-02-02T04:44:01;3.30;99.90
22795;DHT22;11564;50.920;11.612;2023-02-02T04:46:26;3.30;99.90
22795;DHT22;11564;50.920;11.612;2023-02-02T04:48:52;3.30;99.90
22795;DHT22;11564;50.920;11.612;2023-02-02T04:51:18;3.30;99.90
22795;DHT22;11564;50.920;11.612;2023-02-02T04:53:43;3.30;99.90
22795;DHT22;11564;50.920;11.612;2023-02-02T04:56:14;3.30;99.90
22795;DHT22;11564;50.920;11.612;2023-02-02T04:58:40;3.30;99.90
22795;DHT22;11564;50.920;11.612;2023-02-02T05:01:24;3.30;99.90
22795;DHT22;11564;50.920;11.612;2023-02-02T05:03:49;3.20;99.90
22795;DHT22;11564;50.920;11.612;2023-02-02T05:06:15;3.30;99.90
22795;DHT22;11564;50.920;11.612;2023-02-02T05:08:42;3.30;99.90
22795;DHT22;11564;50.920;11.612;2023-02-02T05:11:08;3.20;99.90
22795;DHT22;11564;50.920;11.612;2023-02-02T05:13:33;3.20;99.90
22795;DHT22;11564;50.920;11.612;2023-02-02T05:15:59;3.20;99.90
22795;DHT22;11564;50.920;11.612;2023-02-02T05:18:25;3.20;99.90
22795;DHT22;11564;50.920;11.612;2023-02-02T05:20:50;3.20;99.90
22795;DHT22;11564;50.920;11.612;2023-02-02T05:23:17;3.20;99.90
22795;DHT22;11564;50.920;11.612;2023-02-02T05:25:43;3.10;99.90
22795;DHT22;11564;50.920;11.612;2023-02-02T05:28:09;3.10;99.90
22795;DHT22;11564;50.920;11.612;2023-02-02T05:30:34;3.20;99.90
22795;DHT22;11564;50.920;11.612;2023-02-02T05:33:02;3.20;99.90
22795;DHT22;11564;50.920;11.612;2023-02-02T05:35:28;3.20;99.90
22795;DHT22;11564;50.920;11.612;2023-02-02T05:37:53;3.20;99.90
22795;DHT22;11564;50.920;11.612;2023-02-02T05:40:19;3.30;99.90
22795;DHT22;11564;50.920;11.612;2023-02-02T05:42:46;3.30;99.90
22795;DHT22;11564;50.920;11.612;2023-02-02T05:45:12;3.20;99.90
22795;DHT22;11564;50.920;11.612;2023-02-02T05:47:37;3.20;99.90
22795;DHT22;11564;50.920;11.612;2023-02-02T05:50:03;3.20;99.90
22795;DHT22;11564;50.920;11.612;2023-02-02T05:52:28;3.20;99.90
22795;DHT22;11564;50.920;11.612;2023-02-02T05:54:56;3.20;99.90
22795;DHT22;11564;50.920;11.612;2023-02-02T05:57:22;3.10;99.90
22795;DHT22;11564;50.920;11.612;2023-02-02T05:59:47;3.20;99.90
22795;DHT22;11564;50.920;11.612;2023-02-02T06:02:13;3.20;99.90
22795;DHT22;11564;50.920;11.612;2023-02-02T06:04:38;3.20;99.90
22795;DHT22;11564;50.920;11.612;2023-02-02T06:07:04;3.20;99.90
22795;DHT22;11564;50.920;11.612;2023-02-02T06:09:29;3.30;99.90
22795;DHT22;11564;50.920;11.612;2023-02-02T06:11:55;3.30;99.90
22795;DHT22;11564;50.920;11.612;2023-02-02T06:14:20;3.30;99.90
22795;DHT22;11564;50.920;11.612;2023-02-02T06:16:46;3.30;99.90
22795;DHT22;11564;50.920;11.612;2023-02-02T06:19:11;3.30;99.90
22795;DHT22;11564;50.920;11.612;2023-02-02T06:21:37;3.20;99.90
22795;DHT22;11564;50.920;11.612;2023-02-02T06:24:02;3.10;99.90
22795;DHT22;11564;50.920;11.612;2023-02-02T06:26:28;3.20;99.90
22795;DHT22;11564;50.920;11.612;2023-02-02T06:28:54;3.20;99.90
22795;DHT22;11564;50.920;11.612;2023-02-02T06:31:20;3.20;99.90
22795;DHT22;11564;50.920;11.612;2023-02-02T06:33:46;3.20;99.90
22795;DHT22;11564;50.920;11.612;2023-02-02T06:36:11;3.10;99.90
22795;DHT22;11564;50.920;11.612;2023-02-02T06:38:37;3.20;99.90
22795;DHT22;11564;50.920;11.612;2023-02-02T06:41:02;3.20;99.90
22795;DHT22;11564;50.920;11.612;2023-02-02T06:43:28;3.20;99.90
22795;DHT22;11564;50.920;11.612;2023-02-02T06:45:55;3.20;99.90
22795;DHT22;11564;50.920;11.612;2023-02-02T06:48:21;3.20;99.90
22795;DHT22;11564;50.920;11.612;2023-02-02T06:50:46;3.40;99.90
22795;DHT22;11564;50.920;11.612;2023-02-02T06:53:12;3.40;99.90
22795;DHT22;11564;50.920;11.612;2023-02-02T06:55:38;3.40;99.90
22795;DHT22;11564;50.920;11.612;2023-02-02T06:58:03;3.40;99.90
22795;DHT22;11564;50.920;11.612;2023-02-02T07:00:29;3.50;99.90
22795;DHT22;11564;50.920;11.612;2023-02-02T07:02:54;3.50;99.90
22795;DHT22;11564;50.920;11.612;2023-02-02T07:05:20;3.50;99.90
22795;DHT22;11564;50.920;11.612;2023-02-02T07:07:51;3.60;99.90
22795;DHT22;11564;50.920;11.612;2023-02-02T07:10:16;3.60;99.90
22795;DHT22;11564;50.920;11.612;2023-02-02T07:12:43;3.50;99.90
22795;DHT22;11564;50.920;11.612;2023-02-02T07:15:08;3.50;99.90
22795;DHT22;11564;50.920;11.612;2023-02-02T07:17:34;3.60;99.90
22795;DHT22;11564;50.920;11.612;2023-02-02T07:19:59;3.60;99.90
22795;DHT22;11564;50.920;11.612;2023-02-02T07:22:25;3.70;99.90
22795;DHT22;11564;50.920;11.612;2023-02-02T07:24:50;3.70;99.90
22795;DHT22;11564;50.920;11.612;2023-02-02T07:27:16;3.70;99.90
22795;DHT22;11564;50.920;11.612;2023-02-02T07:29:42;3.70;99.90
22795;DHT22;11564;50.920;11.612;2023-02-02T07:32:07;3.70;99.90
22795;DHT22;11564;50.920;11.612;2023-02-02T07:34:35;3.70;99.90
22795;DHT22;11564;50.920;11.612;2023-02-02T07:37:01;3.70;99.90
22795;DHT22;11564;50.920;11.612;2023-02-02T07:39:26;3.80;99.90
22795;DHT22;11564;50.920;11.612;2023-02-02T07:41:52;3.90;99.90
22795;DHT22;11564;50.920;11.612;2023-02-02T07:44:17;3.90;99.90
22795;DHT22;11564;50.920;11.612;2023-02-02T07:46:44;3.90;99.90
22795;DHT22;11564;50.920;11.612;2023-02-02T07:49:11;3.90;99.90
22795;DHT22;11564;50.920;11.612;2023-02-02T07:51:37;4.00;99.90
22795;DHT22;11564;50.920;11.612;2023-02-02T07:54:02;3.90;99.90
22795;DHT22;11564;50.920;11.612;2023-02-02T07:56:28;3.90;99.90
22795;DHT22;11564;50.920;11.612;2023-02-02T07:58:54;3.90;99.90
22795;DHT22;11564;50.920;11.612;2023-02-02T08:01:20;4.10;99.90
22795;DHT22;11564;50.920;11.612;2023-02-02T08:03:47;4.10;99.90
22795;DHT22;11564;50.920;11.612;2023-02-02T08:06:14;4.10;99.90
22795;DHT22;11564;50.920;11.612;2023-02-02T08:08:40;4.10;99.90
22795;DHT22;11564;50.920;11.612;2023-02-02T08:11:09;4.30;99.90
22795;DHT22;11564;50.920;11.612;2023-02-02T08:13:36;4.30;99.90
22795;DHT22;11564;50.920;11.612;2023-02-02T08:16:01;4.30;99.90
22795;DHT22;11564;50.920;11.612;2023-02-02T08:18:27;4.20;99.90
22795;DHT22;11564;50.920;11.612;2023-02-02T08:20:53;4.30;99.90
22795;DHT22;11564;50.920;11.612;2023-02-02T08:23:18;4.20;99.90
22795;DHT22;11564;50.920;11.612;2023-02-02T08:25:48;4.30;99.90
22795;DHT22;11564;50.920;11.612;2023-02-02T08:28:16;4.30;99.90
22795;DHT22;11564;50.920;11.612;2023-02-02T08:30:42;4.40;99.90
22795;DHT22;11564;50.920;11.612;2023-02-02T08:33:08;4.30;99.90
22795;DHT22;11564;50.920;11.612;2023-02-02T08:35:33;4.30;99.90
22795;DHT22;11564;50.920;11.612;2023-02-02T08:37:59;4.40;99.90
22795;DHT22;11564;50.920;11.612;2023-02-02T08:40:27;4.40;99.90
22795;DHT22;11564;50.920;11.612;2023-02-02T08:42:53;4.40;99.90
22795;DHT22;11564;50.920;11.612;2023-02-02T08:45:19;4.40;99.90
22795;DHT22;11564;50.920;11.612;2023-02-02T08:47:44;4.50;99.90
22795;DHT22;11564;50.920;11.612;2023-02-02T08:50:10;4.50;99.90
22795;DHT22;11564;50.920;11.612;2023-02-02T08:52:35;4.40;99.90
22795;DHT22;11564;50.920;11.612;2023-02-02T08:55:01;4.50;99.90
22795;DHT22;11564;50.920;11.612;2023-02-02T08:57:27;4.40;99.90
22795;DHT22;11564;50.920;11.612;2023-02-02T08:59:52;4.40;99.90
22795;DHT22;11564;50.920;11.612;2023-02-02T09:02:18;4.40;99.90
22795;DHT22;11564;50.920;11.612;2023-02-02T09:04:44;4.40;99.90
22795;DHT22;11564;50.920;11.612;2023-02-02T09:07:11;4.30;99.90
22795;DHT22;11564;50.920;11.612;2023-02-02T09:09:36;4.30;99.90
22795;DHT22;11564;50.920;11.612;2023-02-02T09:12:02;4.30;99.90
22795;DHT22;11564;50.920;11.612;2023-02-02T09:14:27;4.30;99.90
22795;DHT22;11564;50.920;11.612;2023-02-02T09:16:53;4.20;99.90
22795;DHT22;11564;50.920;11.612;2023-02-02T09:19:18;4.10;99.90
22795;DHT22;11564;50.920;11.612;2023-02-02T09:21:44;4.10;99.90
22795;DHT22;11564;50.920;11.612;2023-02-02T09:24:10;4.10;99.90
22795;DHT22;11564;50.920;11.612;2023-02-02T09:26:36;4.10;99.90
22795;DHT22;11564;50.920;11.612;2023-02-02T09:29:03;4.00;99.90
22795;DHT22;11564;50.920;11.612;2023-02-02T09:31:32;4.00;99.90
22795;DHT22;11564;50.920;11.612;2023-02-02T09:34:05;3.90;99.90
22795;DHT22;11564;50.920;11.612;2023-02-02T09:36:30;3.90;99.90
22795;DHT22;11564;50.920;11.612;2023-02-02T09:38:56;3.90;99.90
22795;DHT22;11564;50.920;11.612;2023-02-02T09:49:14;3.90;99.90
22795;DHT22;11564;50.920;11.612;2023-02-02T09:51:45;3.90;99.90
22795;DHT22;11564;50.920;11.612;2023-02-02T09:54:20;3.90;99.90
22795;DHT22;11564;50.920;11.612;2023-02-02T09:56:48;3.80;99.90
22795;DHT22;11564;50.920;11.612;2023-02-02T09:59:24;3.90;99.90
22795;DHT22;11564;50.920;11.612;2023-02-02T10:01:56;3.90;99.90
22795;DHT22;11564;50.920;11.612;2023-02-02T10:04:35;3.80;99.90
22795;DHT22;11564;50.920;11.612;2023-02-02T10:07:15;3.70;99.90
22795;DHT22;11564;50.920;11.612;2023-02-02T10:09:45;3.70;99.90
22795;DHT22;11564;50.920;11.612;2023-02-02T10:15:01;3.70;99.90
22795;DHT22;11564;50.920;11.612;2023-02-02T10:20:13;3.60;99.90
22795;DHT22;11564;50.920;11.612;2023-02-02T10:22:39;3.60;99.90
22795;DHT22;11564;50.920;11.612;2023-02-02T10:25:07;3.60;99.90
22795;DHT22;11564;50.920;11.612;2023-02-02T10:27:36;3.60;99.90
22795;DHT22;11564;50.920;11.612;2023-02-02T10:30:02;3.40;99.90
22795;DHT22;11564;50.920;11.612;2023-02-02T10:37:39;3.30;99.90
22795;DHT22;11564;50.920;11.612;2023-02-02T10:40:55;3.20;99.90
22795;DHT22;11564;50.920;11.612;2023-02-02T10:42:55;3.20;99.90
22795;DHT22;11564;50.920;11.612;2023-02-02T10:45:42;3.10;99.90
22795;DHT22;11564;50.920;11.612;2023-02-02T10:48:15;3.00;99.90
22795;DHT22;11564;50.920;11.612;2023-02-02T10:50:45;3.10;99.90
22795;DHT22;11564;50.920;11.612;2023-02-02T10:53:12;3.10;99.90
22795;DHT22;11564;50.920;11.612;2023-02-02T10:55:40;3.10;99.90
22795;DHT22;11564;50.920;11.612;2023-02-02T11:03:11;2.90;99.90
22795;DHT22;11564;50.920;11.612;2023-02-02T11:05:37;3.00;99.90
22795;DHT22;11564;50.920;11.612;2023-02-02T11:08:40;2.90;99.90
22795;DHT22;11564;50.920;11.612;2023-02-02T11:13:58;3.10;99.90
22795;DHT22;11564;50.920;11.612;2023-02-02T11:16:25;3.20;99.90
22795;DHT22;11564;50.920;11.612;2023-02-02T11:18:51;3.10;99.90
22795;DHT22;11564;50.920;11.612;2023-02-02T11:21:17;3.20;99.90
22795;DHT22;11564;50.920;11.612;2023-02-02T11:23:50;3.30;99.90
22795;DHT22;11564;50.920;11.612;2023-02-02T11:26:16;3.30;99.90
22795;DHT22;11564;50.920;11.612;2023-02-02T11:28:41;3.30;99.90
22795;DHT22;11564;50.920;11.612;2023-02-02T11:31:07;3.30;99.90
22795;DHT22;11564;50.920;11.612;2023-02-02T11:33:34;3.40;99.90
22795;DHT22;11564;50.920;11.612;2023-02-02T11:36:04;3.50;99.90
22795;DHT22;11564;50.920;11.612;2023-02-02T11:38:30;3.60;99.90
22795;DHT22;11564;50.920;11.612;2023-02-02T11:46:19;3.80;99.90
22795;DHT22;11564;50.920;11.612;2023-02-02T11:48:53;4.00;99.90
22795;DHT22;11564;50.920;11.612;2023-02-02T11:51:23;4.10;99.90
22795;DHT22;11564;50.920;11.612;2023-02-02T11:53:49;4.10;99.90
22795;DHT22;11564;50.920;11.612;2023-02-02T11:56:21;4.20;99.90
22795;DHT22;11564;50.920;11.612;2023-02-02T11:58:48;4.20;99.90
22795;DHT22;11564;50.920;11.612;2023-02-02T12:01:35;4.30;99.90
22795;DHT22;11564;50.920;11.612;2023-02-02T12:06:48;4.40;99.90
22795;DHT22;11564;50.920;11.612;2023-02-02T12:09:16;4.50;99.90
22795;DHT22;11564;50.920;11.612;2023-02-02T12:27:46;4.30;99.90
22795;DHT22;11564;50.920;11.612;2023-02-02T13:03:30;4.10;99.90
22795;DHT22;11564;50.920;11.612;2023-02-02T13:11:11;3.80;99.90
22795;DHT22;11564;50.920;11.612;2023-02-02T13:13:57;4.00;99.90
22795;DHT22;11564;50.920;11.612;2023-02-02T13:16:25;3.90;99.90
22795;DHT22;11564;50.920;11.612;2023-02-02T13:19:10;3.90;99.90
22795;DHT22;11564;50.920;11.612;2023-02-02T13:21:38;3.90;99.90
22795;DHT22;11564;50.920;11.612;2023-02-02T13:24:05;4.00;99.90
22795;DHT22;11564;50.920;11.612;2023-02-02T13:26:36;4.00;99.90
22795;DHT22;11564;50.920;11.612;2023-02-02T13:34:22;3.90;99.90
22795;DHT22;11564;50.920;11.612;2023-02-02T13:37:12;3.80;99.90
22795;DHT22;11564;50.920;11.612;2023-02-02T13:42:00;3.80;99.90
22795;DHT22;11564;50.920;11.612;2023-02-02T13:44:29;3.80;99.90
22795;DHT22;11564;50.920;11.612;2023-02-02T13:46:57;3.70;99.90
22795;DHT22;11564;50.920;11.612;2023-02-02T13:51:59;3.70;99.90
22795;DHT22;11564;50.920;11.612;2023-02-02T14:05:24;3.80;99.90
22795;DHT22;11564;50.920;11.612;2023-02-02T14:08:33;3.80;99.90
22795;DHT22;11564;50.920;11.612;2023-02-02T14:10:44;3.80;99.90
22795;DHT22;11564;50.920;11.612;2023-02-02T14:14:14;3.70;99.90
22795;DHT22;11564;50.920;11.612;2023-02-02T14:18:56;3.80;99.90
22795;DHT22;11564;50.920;11.612;2023-02-02T14:24:36;3.70;99.90
22795;DHT22;11564;50.920;11.612;2023-02-02T14:26:50;3.80;99.90
22795;DHT22;11564;50.920;11.612;2023-02-02T14:31:57;3.70;99.90
22795;DHT22;11564;50.920;11.612;2023-02-02T14:34:27;3.70;99.90
22795;DHT22;11564;50.920;11.612;2023-02-02T14:36:57;3.70;99.90
22795;DHT22;11564;50.920;11.612;2023-02-02T14:39:24;3.80;99.90
22795;DHT22;11564;50.920;11.612;2023-02-02T14:41:57;3.80;99.90
22795;DHT22;11564;50.920;11.612;2023-02-02T14:45:05;3.70;99.90
22795;DHT22;11564;50.920;11.612;2023-02-02T14:50:13;3.90;99.90
22795;DHT22;11564;50.920;11.612;2023-02-02T14:52:39;4.00;99.90
22795;DHT22;11564;50.920;11.612;2023-02-02T14:55:15;4.00;99.90
22795;DHT22;11564;50.920;11.612;2023-02-02T14:57:40;3.90;99.90
22795;DHT22;11564;50.920;11.612;2023-02-02T15:00:19;3.80;99.90
22795;DHT22;11564;50.920;11.612;2023-02-02T15:02:45;3.80;99.90
22795;DHT22;11564;50.920;11.612;2023-02-02T15:08:30;3.70;99.90
22795;DHT22;11564;50.920;11.612;2023-02-02T15:13:18;3.70;99.90
22795;DHT22;11564;50.920;11.612;2023-02-02T15:15:45;3.70;99.90
22795;DHT22;11564;50.920;11.612;2023-02-02T15:18:15;3.80;99.90
22795;DHT22;11564;50.920;11.612;2023-02-02T15:20:44;3.90;99.90
22795;DHT22;11564;50.920;11.612;2023-02-02T15:23:23;3.90;99.90
22795;DHT22;11564;50.920;11.612;2023-02-02T15:26:06;3.90;99.90
22795;DHT22;11564;50.920;11.612;2023-02-02T15:30:59;3.80;99.90
22795;DHT22;11564;50.920;11.612;2023-02-02T15:33:30;3.80;99.90
22795;DHT22;11564;50.920;11.612;2023-02-02T15:36:02;3.80;99.90
22795;DHT22;11564;50.920;11.612;2023-02-02T15:38:33;3.70;99.90
22795;DHT22;11564;50.920;11.612;2023-02-02T15:41:03;3.80;99.90
22795;DHT22;11564;50.920;11.612;2023-02-02T15:43:30;3.80;99.90
22795;DHT22;11564;50.920;11.612;2023-02-02T15:46:03;3.70;99.90
22795;DHT22;11564;50.920;11.612;2023-02-02T15:48:30;3.80;99.90
22795;DHT22;11564;50.920;11.612;2023-02-02T15:50:58;3.70;99.90
22795;DHT22;11564;50.920;11.612;2023-02-02T15:53:30;3.80;99.90
22795;DHT22;11564;50.920;11.612;2023-02-02T15:55:56;3.70;99.90
22795;DHT22;11564;50.920;11.612;2023-02-02T16:03:25;3.70;99.90
22795;DHT22;11564;50.920;11.612;2023-02-02T16:05:52;3.60;99.90
22795;DHT22;11564;50.920;11.612;2023-02-02T16:08:20;3.70;99.90
22795;DHT22;11564;50.920;11.612;2023-02-02T16:10:48;3.70;99.90
22795;DHT22;11564;50.920;11.612;2023-02-02T16:13:22;3.60;99.90
22795;DHT22;11564;50.920;11.612;2023-02-02T16:15:55;3.60;99.90
22795;DHT22;11564;50.920;11.612;2023-02-02T16:18:20;3.60;99.90
22795;DHT22;11564;50.920;11.612;2023-02-02T16:20:46;3.50;99.90
22795;DHT22;11564;50.920;11.612;2023-02-02T16:23:13;3.50;99.90
22795;DHT22;11564;50.920;11.612;2023-02-02T16:25:47;3.50;99.90
22795;DHT22;11564;50.920;11.612;2023-02-02T16:28:13;3.50;99.90
22795;DHT22;11564;50.920;11.612;2023-02-02T16:30:41;3.50;99.90
22795;DHT22;11564;50.920;11.612;2023-02-02T16:35:52;3.60;99.90
22795;DHT22;11564;50.920;11.612;2023-02-02T16:38:22;3.50;99.90
22795;DHT22;11564;50.920;11.612;2023-02-02T16:40:48;3.60;99.90
22795;DHT22;11564;50.920;11.612;2023-02-02T16:43:17;3.60;99.90
22795;DHT22;11564;50.920;11.612;2023-02-02T16:45:50;3.50;99.90
22795;DHT22;11564;50.920;11.612;2023-02-02T16:51:02;3.50;99.90
22795;DHT22;11564;50.920;11.612;2023-02-02T16:53:29;3.60;99.90
22795;DHT22;11564;50.920;11.612;2023-02-02T16:55:55;3.60;99.90
22795;DHT22;11564;50.920;11.612;2023-02-02T16:58:22;3.60;99.90
22795;DHT22;11564;50.920;11.612;2023-02-02T17:01:07;3.60;99.90
22795;DHT22;11564;50.920;11.612;2023-02-02T17:03:34;3.60;99.90
22795;DHT22;11564;50.920;11.612;2023-02-02T17:06:00;3.70;99.90
22795;DHT22;11564;50.920;11.612;2023-02-02T17:08:36;3.70;99.90
22795;DHT22;11564;50.920;11.612;2023-02-02T17:11:45;3.60;99.90
22795;DHT22;11564;50.920;11.612;2023-02-02T17:13:52;3.60;99.90
22795;DHT22;11564;50.920;11.612;2023-02-02T17:16:22;3.60;99.90
22795;DHT22;11564;50.920;11.612;2023-02-02T17:18:48;3.60;99.90
22795;DHT22;11564;50.920;11.612;2023-02-02T17:21:15;3.60;99.90
22795;DHT22;11564;50.920;11.612;2023-02-02T17:23:42;3.60;99.90
22795;DHT22;11564;50.920;11.612;2023-02-02T17:26:08;3.50;99.90
22795;DHT22;11564;50.920;11.612;2023-02-02T17:28:34;3.60;99.90
22795;DHT22;11564;50.920;11.612;2023-02-02T17:31:00;3.60;99.90
22795;DHT22;11564;50.920;11.612;2023-02-02T17:33:27;3.50;99.90
22795;DHT22;11564;50.920;11.612;2023-02-02T17:35:52;3.50;99.90
22795;DHT22;11564;50.920;11.612;2023-02-02T17:38:19;3.60;99.90
22795;DHT22;11564;50.920;11.612;2023-02-02T17:40:46;3.50;99.90
22795;DHT22;11564;50.920;11.612;2023-02-02T17:43:11;3.40;99.90
22795;DHT22;11564;50.920;11.612;2023-02-02T17:45:37;3.40;99.90
22795;DHT22;11564;50.920;11.612;2023-02-02T17:48:03;3.40;99.90
22795;DHT22;11564;50.920;11.612;2023-02-02T17:50:29;3.40;99.90
22795;DHT22;11564;50.920;11.612;2023-02-02T17:52:55;3.30;99.90
22795;DHT22;11564;50.920;11.612;2023-02-02T17:55:26;3.30;99.90
22795;DHT22;11564;50.920;11.612;2023-02-02T17:57:51;3.20;99.90
22795;DHT22;11564;50.920;11.612;2023-02-02T18:00:18;3.20;99.90
22795;DHT22;11564;50.920;11.612;2023-02-02T18:02:44;3.20;99.90
22795;DHT22;11564;50.920;11.612;2023-02-02T18:05:10;3.20;99.90
22795;DHT22;11564;50.920;11.612;2023-02-02T18:07:36;3.10;99.90
22795;DHT22;11564;50.920;11.612;2023-02-02T18:10:05;3.10;99.90
22795;DHT22;11564;50.920;11.612;2023-02-02T18:12:31;3.20;99.90
22795;DHT22;11564;50.920;11.612;2023-02-02T18:15:03;3.20;99.90
22795;DHT22;11564;50.920;11.612;2023-02-02T18:17:29;3.20;99.90
22795;DHT22;11564;50.920;11.612;2023-02-02T18:19:55;3.10;99.90
22795;DHT22;11564;50.920;11.612;2023-02-02T18:22:21;3.00;99.90
22795;DHT22;11564;50.920;11.612;2023-02-02T18:24:47;3.00;99.90